PFSH

Details ICAO PFSH (SKK)
Name Shaktoolik New
Region USA (Alaska)
Timezone America/Anchorage (UTC-9.0)
Plans Departing 4
Arriving 2
Stats Elevation 24 ft / 7 m (AMSL)
Location 64.366878° -161.213287°
Runways 2
Magnetic Variation 12.021° E
Sunrise 2017-12-14 20:37:48 UTC / 2017-12-14 11:37:48 Local
Sunset 2017-12-15 00:44:29 UTC / 2017-12-14 15:44:29 Local
Advertisement - Login to hide

Runways

ID Width Length Bearing (true) Bearing (mag) Surface Threshold Offset Overrun Length
14 75 ft / 23 m 4,006 ft / 1,221 m 157.61° 145.59° Gravel 0 ft / 0 m 0 ft / 0 m
15 43 ft / 13 m 2,227 ft / 679 m 170.05° 158.03° Dirt 0 ft / 0 m 0 ft / 0 m
32 75 ft / 23 m 4,006 ft / 1,221 m 337.62° 325.60° Gravel 0 ft / 0 m 0 ft / 0 m
33 43 ft / 13 m 2,227 ft / 679 m 350.06° 338.04° Dirt 0 ft / 0 m 0 ft / 0 m

Map

Weather


0- 5 10 15 20 25 30 35+ Temperature / ° C

Clouds and Precipitation
Forecast for 2017-12-14 18:00 UTC. Updated 2 hours ago

Ground ~20,000 ft ~40,000 ft Winds

METAR

PFSH 141824Z AUTO 29004KT 9SM FEW012 OVC028 M03/M04 A2958 RMK AO2 FZRANO

TAF

Not found

Frequencies

Recorded 121.55 MHz AWOS-3
Approach 135.70 MHz Anchorage ARTCC
Unicom 122.80 MHz CTAF
Warning: Do not use this data for real-world aviation or navigation. No guarantee of current accuracy is given.